Terminal Aerodrome Forecast
Issued by NWS Charleston, WV

Current Version | Previous Version | Graphics & Text | Print | Product List | Glossary On
Versions: 1 2 3 4 5 6 7 8 9 10 11 12 13 14 15 16 17 18 19 20 21 22 23
000
FTUS41 KRLX 010615 CCA
TAFPKB
TAF COR
KPKB 010615Z 0106/0206 32008KT 6SM BR OVC009
     FM010800 34003KT 5SM BR OVC008
     FM011300 36005KT 6SM BR OVC015
     FM011600 36004KT P6SM OVC020
     FM011800 01005KT P6SM OVC025
     FM012300 VRB03KT P6SM OVC020
     FM020300 02004KT 4SM BR OVC015=

USA.gov is the U.S. government's official web portal to all federal, state and local government web resources and services.